首页
METAR-TAF:

METAR-TAF

机场 :

因斯布魯克機場

因斯布鲁克, 奥地利

纬度: 47-16N, 经度: 011-21E, 海拔: 581米

当前天气观测

该预报发布于36分钟前的13:50 UTC
风速2节,风向多变
温度 2°C
湿度 64%
气压 1005 hPa
能见度10公里或以上
少量云层高于1800英尺
散云层高于2300英尺

METAR: LOWI 031350Z VRB02KT 9999 FEW018 SCT023 02/M04 Q1005 NOSIG

时间: 15:26 (14:26 UTC)

预报

该预报发布于3小时和11分钟前的11:15 UTC
预报有效从03日的 12点(UTC)到 04日的 12点(UTC)
风速5节,风向
能见度10公里或以上
少量云层高于1000英尺
散云层高于5000英尺
成为
从 04日的 00点(UTC)到 04日的 02点(UTC)
风速10节,风向西
成为
从 04日的 08点(UTC)到 04日的 10点(UTC)
风速12节,风向东转东南,有时为25节阵风
短暂存在
从 04日的 10点(UTC)到 04日的 12点(UTC)
风速15节,风向东南,有时为35节阵风

TAF: LOWI 031115Z 0312/0412 08005KT 9999 FEW010 SCT050 TX08/0412Z TNM02/0320Z BECMG 0400/0402 27010KT BECMG 0408/0410 11012G25KT TEMPO 0410/0412 13015G35KT

超过4000个机场的气象观测和天气预报(METAR&TAF报告)。

可查询的气象台以黄色和红色小点在地图上表示。

将鼠标移到小点上方,可查看气象台名称。

然后点击查看天气观测和预报。

如需切换地图:点击带黑十字的绿色按钮放大地图;点击带横线的绿色按钮缩小地图;或者点击绿色箭头查看邻近地区的地图。


METAR-TAF: